VTCC/CNX METAR and TAF weather

Enter ICAO airport designator
Station Type Date Time Source
VTCC METAR 2019/12/07 00:00 UTC NOAA

VTCC 070000Z 00000KT CAVOK 13/11 Q1023 NOSIG


Station Type Date Time Source
VTCC Decoded METAR 2019/12/07 00:00 UTC NOAA

Chiang Mai, Thailand (VTCC) 18-47N 098-59E 314M
Dec 06, 2019 - 07:00 PM EST / 2019.12.07 0000 UTC
Wind: Calm:0
Visibility: greater than 7 mile(s):0
Temperature: 55 F (13 C)
Dew Point: 51 F (11 C)
Relative Humidity: 87%
Pressure (altimeter): 30.21 in. Hg (1023 hPa)
ob: VTCC 070000Z 00000KT CAVOK 13/11 Q1023 NOSIG
cycle: 0

Station Type Date Time Source
VTCC TAF 2019/12/06 18:37 UTC NOAA

TAF VTCC 061700Z 0618/0724 02005KT 9999 FEW035

Example: see airport list